createdAt,value
2024-04-26T00:01:10.494Z,15.77
2024-04-26T00:03:58.574Z,16.52
2024-04-26T00:06:29.207Z,17.92
2024-04-26T00:09:00.366Z,18.48
2024-04-26T00:11:31.028Z,18.08
2024-04-26T00:14:02.084Z,18.45
2024-04-26T00:16:41.709Z,18.38
2024-04-26T00:19:12.909Z,19.50
2024-04-26T00:21:47.148Z,16.98
2024-04-26T00:24:21.883Z,19.23
2024-04-26T00:26:52.782Z,17.88
2024-04-26T00:29:24.448Z,17.33
2024-04-26T00:31:57.992Z,18.00
2024-04-26T00:34:28.998Z,20.30
2024-04-26T00:37:01.416Z,17.77
2024-04-26T00:39:32.483Z,19.20
2024-04-26T00:42:03.261Z,19.27
2024-04-26T00:44:34.338Z,18.38
2024-04-26T00:47:07.740Z,17.67
2024-04-26T00:49:38.936Z,18.27
2024-04-26T00:52:09.840Z,18.45
2024-04-26T00:54:41.111Z,19.33
2024-04-26T00:57:12.710Z,19.27
2024-04-26T00:59:44.611Z,18.45
2024-04-26T01:02:20.896Z,19.30
2024-04-26T01:04:52.282Z,19.23
2024-04-26T01:07:23.032Z,16.98
2024-04-26T01:09:54.366Z,17.60
2024-04-26T01:12:25.473Z,19.38
2024-04-26T01:14:56.626Z,19.92
2024-04-26T01:17:30.059Z,17.35
2024-04-26T01:20:01.386Z,18.15
2024-04-26T01:22:42.054Z,17.15
2024-04-26T01:25:15.833Z,17.17
2024-04-26T01:27:46.546Z,16.98
2024-04-26T01:30:21.170Z,15.60
2024-04-26T01:32:51.876Z,17.20
2024-04-26T01:35:23.141Z,15.75
2024-04-26T01:37:53.858Z,17.52
2024-04-26T01:40:27.714Z,16.70
2024-04-26T01:42:58.424Z,15.90
2024-04-26T01:45:29.508Z,16.58
2024-04-26T01:47:57.723Z,16.52
2024-04-26T01:50:29.347Z,17.23
2024-04-26T01:53:00.044Z,16.70
2024-04-26T01:55:33.864Z,15.65
2024-04-26T01:58:02.057Z,15.20
2024-04-26T02:00:33.265Z,16.48
2024-04-26T02:03:01.643Z,15.13
2024-04-26T02:05:33.054Z,16.17
2024-04-26T02:08:01.142Z,18.88
2024-04-26T02:10:34.854Z,15.23
2024-04-26T02:13:02.879Z,15.27
2024-04-26T02:15:33.942Z,16.17
2024-04-26T02:18:02.156Z,15.13
2024-04-26T02:20:33.251Z,17.75
2024-04-26T02:23:03.938Z,15.68
2024-04-26T02:25:37.630Z,18.15
2024-04-26T02:28:09.437Z,18.42
2024-04-26T02:30:40.470Z,15.88
2024-04-26T02:33:11.518Z,16.67
2024-04-26T02:35:42.670Z,16.25
2024-04-26T02:38:13.387Z,17.20
2024-04-26T02:40:47.138Z,18.08
2024-04-26T02:43:17.892Z,17.92
2024-04-26T02:45:48.945Z,18.05
2024-04-26T02:48:19.757Z,17.90
2024-04-26T02:50:50.939Z,16.73
2024-04-26T02:53:21.886Z,15.55
2024-04-26T02:55:55.587Z,15.73
2024-04-26T02:58:26.258Z,15.15
2024-04-26T03:00:57.376Z,16.15
2024-04-26T03:03:28.641Z,14.98
2024-04-26T03:05:59.830Z,15.40
2024-04-26T03:08:30.556Z,15.77
2024-04-26T03:11:04.408Z,18.30
2024-04-26T03:13:36.729Z,18.58
2024-04-26T03:16:08.610Z,16.85
2024-04-26T03:18:39.429Z,15.98
2024-04-26T03:21:10.721Z,15.10
2024-04-26T03:23:41.552Z,17.38
2024-04-26T03:26:16.954Z,16.95
2024-04-26T03:28:50.568Z,16.25
2024-04-26T03:31:25.554Z,17.27
2024-04-26T03:33:56.700Z,16.30
2024-04-26T03:36:27.983Z,15.15
2024-04-26T03:38:58.902Z,14.82
2024-04-26T03:41:32.650Z,14.77
2024-04-26T03:44:03.334Z,16.60
2024-04-26T03:46:34.449Z,15.27
2024-04-26T03:49:05.365Z,15.77
2024-04-26T03:51:36.569Z,16.65
2024-04-26T03:54:07.507Z,18.15
2024-04-26T03:56:41.402Z,15.23
2024-04-26T03:59:12.094Z,16.38
2024-04-26T04:01:43.319Z,16.33
2024-04-26T04:04:14.047Z,18.25
2024-04-26T04:06:45.290Z,19.17
2024-04-26T04:09:16.056Z,18.15
2024-04-26T04:11:49.901Z,17.73
2024-04-26T04:14:20.732Z,19.60
2024-04-26T04:16:51.990Z,19.20
2024-04-26T04:19:22.828Z,19.48
2024-04-26T04:21:54.081Z,18.30
2024-04-26T04:24:24.886Z,18.38
2024-04-26T04:26:58.726Z,20.98
2024-04-26T04:29:29.628Z,19.63
2024-04-26T04:32:00.675Z,19.88
2024-04-26T04:34:31.659Z,21.48
2024-04-26T04:37:02.982Z,21.80
2024-04-26T04:39:33.682Z,20.63
2024-04-26T04:42:07.521Z,19.33
2024-04-26T04:44:39.255Z,18.70
2024-04-26T04:47:10.584Z,19.05
2024-04-26T04:49:41.284Z,19.02
2024-04-26T04:52:12.954Z,21.85
2024-04-26T04:54:43.690Z,21.08
2024-04-26T04:57:17.829Z,19.45
2024-04-26T04:59:48.581Z,22.52
2024-04-26T05:02:19.724Z,20.60
2024-04-26T05:04:50.453Z,19.75
2024-04-26T05:07:22.102Z,19.95
2024-04-26T05:09:53.843Z,19.55
2024-04-26T05:12:27.764Z,22.15
2024-04-26T05:14:58.538Z,22.80
2024-04-26T05:17:29.955Z,22.13
2024-04-26T05:20:03.700Z,22.48
2024-04-26T05:22:36.265Z,19.95
2024-04-26T05:25:08.805Z,19.75
2024-04-26T05:27:42.664Z,19.10
2024-04-26T05:30:16.143Z,20.25
2024-04-26T05:32:44.979Z,19.13
2024-04-26T05:35:16.064Z,20.08
2024-04-26T05:37:47.143Z,18.88
2024-04-26T05:40:20.035Z,20.33
2024-04-26T05:42:53.768Z,19.58
2024-04-26T05:45:24.518Z,19.15
2024-04-26T05:47:56.049Z,19.13
2024-04-26T05:50:26.810Z,18.45
2024-04-26T05:52:57.878Z,17.58
2024-04-26T05:55:28.574Z,18.77
2024-04-26T05:58:02.679Z,18.30
2024-04-26T06:00:34.224Z,17.08
2024-04-26T06:03:05.487Z,17.92
2024-04-26T06:05:37.401Z,16.95
2024-04-26T06:08:09.886Z,17.58
2024-04-26T06:10:40.655Z,17.58
2024-04-26T06:13:22.612Z,17.33
2024-04-26T06:15:58.786Z,16.40
2024-04-26T06:18:30.041Z,15.88
2024-04-26T06:21:00.867Z,16.25
2024-04-26T06:23:32.631Z,15.60
2024-04-26T06:26:03.354Z,16.35
2024-04-26T06:28:39.938Z,16.30
2024-04-26T06:31:10.620Z,15.80
2024-04-26T06:33:41.875Z,14.55
2024-04-26T06:36:12.767Z,14.15
2024-04-26T06:38:43.975Z,13.30
2024-04-26T06:41:14.705Z,12.70
2024-04-26T06:43:51.762Z,11.65
2024-04-26T06:46:24.764Z,11.55
2024-04-26T06:48:56.048Z,10.88
2024-04-26T06:51:26.843Z,9.98
2024-04-26T06:53:57.976Z,9.20
2024-04-26T06:56:28.785Z,8.55
2024-04-26T06:59:02.591Z,8.48
2024-04-26T07:01:33.445Z,7.20
2024-04-26T07:04:04.943Z,7.20
2024-04-26T07:06:35.952Z,7.05
2024-04-26T07:09:07.196Z,7.78
2024-04-26T07:11:38.126Z,7.07
2024-04-26T07:14:12.093Z,7.13
2024-04-26T07:16:43.530Z,7.47
2024-04-26T07:19:14.918Z,7.10
2024-04-26T07:21:45.644Z,6.53
2024-04-26T07:24:16.866Z,6.68
2024-04-26T07:26:47.873Z,6.57
2024-04-26T07:29:27.418Z,6.65
2024-04-26T07:32:00.274Z,6.90
2024-04-26T07:34:32.331Z,6.25
2024-04-26T07:37:03.051Z,6.68
2024-04-26T07:39:34.323Z,5.53
2024-04-26T07:42:06.577Z,4.60
2024-04-26T07:44:40.539Z,4.65
2024-04-26T07:47:14.563Z,4.38
2024-04-26T07:49:45.906Z,4.53
2024-04-26T07:52:17.148Z,4.45
2024-04-26T07:54:48.419Z,4.20
2024-04-26T07:57:19.278Z,4.72
2024-04-26T07:59:53.427Z,4.07
2024-04-26T08:02:24.323Z,4.05
2024-04-26T08:04:55.508Z,3.10
2024-04-26T08:07:26.297Z,3.20
2024-04-26T08:09:57.534Z,3.67
2024-04-26T08:12:28.337Z,3.63
2024-04-26T08:15:02.190Z,4.35
2024-04-26T08:17:36.611Z,3.85
2024-04-26T08:20:14.576Z,3.90
2024-04-26T08:22:45.582Z,3.67
2024-04-26T08:25:26.570Z,4.43
2024-04-26T08:27:59.417Z,4.55
2024-04-26T08:30:35.944Z,4.60
2024-04-26T08:33:09.382Z,4.45
2024-04-26T08:35:42.152Z,4.65
2024-04-26T08:38:12.987Z,5.05
2024-04-26T08:40:44.811Z,4.40
2024-04-26T08:43:17.339Z,4.50
2024-04-26T08:45:56.691Z,4.50
2024-04-26T08:48:29.550Z,4.97
2024-04-26T08:51:01.884Z,5.22
2024-04-26T08:53:34.867Z,4.53
2024-04-26T08:56:10.896Z,4.13
2024-04-26T08:58:42.820Z,4.28
2024-04-26T09:01:17.165Z,4.53
2024-04-26T09:03:48.366Z,4.20
2024-04-26T09:06:22.217Z,4.55
2024-04-26T09:08:52.976Z,4.05
2024-04-26T09:11:24.273Z,4.03
2024-04-26T09:13:55.037Z,4.40
2024-04-26T09:16:32.066Z,4.22
2024-04-26T09:19:04.904Z,3.75
2024-04-26T09:21:36.460Z,3.05
2024-04-26T09:24:07.633Z,2.83
2024-04-26T09:26:43.679Z,2.42
2024-04-26T09:29:16.259Z,2.78
2024-04-26T09:31:50.049Z,2.10
2024-04-26T09:34:21.051Z,2.70
2024-04-26T09:36:52.457Z,2.60
2024-04-26T09:39:23.956Z,2.50
2024-04-26T09:41:56.859Z,2.50
2024-04-26T09:44:28.129Z,2.95
2024-04-26T09:47:03.624Z,2.33
2024-04-26T09:49:34.884Z,2.17
2024-04-26T09:52:07.979Z,2.00
2024-04-26T09:54:38.947Z,2.08
2024-04-26T09:57:10.185Z,2.13
2024-04-26T09:59:42.019Z,2.22
2024-04-26T10:02:22.640Z,2.00
2024-04-26T10:04:55.792Z,1.92
2024-04-26T10:07:28.306Z,1.90
2024-04-26T10:10:04.168Z,1.98
2024-04-26T10:12:36.101Z,1.92
2024-04-26T10:15:15.177Z,2.35
2024-04-26T10:17:55.651Z,2.00
2024-04-26T10:20:28.630Z,2.10
2024-04-26T10:23:14.785Z,1.70
2024-04-26T10:25:45.960Z,1.92
2024-04-26T10:28:18.832Z,1.60
2024-04-26T10:30:51.071Z,1.92
2024-04-26T10:33:25.173Z,1.23
2024-04-26T10:35:56.065Z,1.50
2024-04-26T10:38:27.224Z,1.42
2024-04-26T10:40:57.967Z,1.50
2024-04-26T10:43:31.090Z,1.50
2024-04-26T10:46:02.758Z,1.60
2024-04-26T10:48:38.399Z,1.60
2024-04-26T10:51:11.668Z,1.30
2024-04-26T10:53:46.941Z,1.27
2024-04-26T10:56:20.415Z,1.75
2024-04-26T10:58:51.805Z,1.42
2024-04-26T11:01:25.235Z,1.67
2024-04-26T11:04:02.600Z,1.58
2024-04-26T11:06:36.492Z,1.20
2024-04-26T11:09:07.938Z,1.63
2024-04-26T11:11:38.953Z,1.25
2024-04-26T11:14:10.342Z,1.50
2024-04-26T11:16:41.684Z,1.30
2024-04-26T11:19:15.762Z,1.60
2024-04-26T11:21:47.958Z,1.65
2024-04-26T11:24:19.270Z,1.52
2024-04-26T11:26:50.043Z,1.48
2024-04-26T11:29:21.160Z,1.45
2024-04-26T11:31:52.846Z,1.42
2024-04-26T11:34:26.747Z,1.30
2024-04-26T11:36:58.811Z,1.23
2024-04-26T11:39:30.388Z,1.42
2024-04-26T11:42:01.138Z,1.50
2024-04-26T11:44:32.337Z,1.90
2024-04-26T11:47:03.080Z,1.40
2024-04-26T11:49:37.169Z,1.30
2024-04-26T11:52:09.564Z,1.45
2024-04-26T11:54:41.210Z,1.58
2024-04-26T11:57:12.046Z,1.35
2024-04-26T11:59:43.627Z,1.77
2024-04-26T12:02:17.603Z,1.70
2024-04-26T12:04:51.937Z,1.50
2024-04-26T12:07:22.699Z,1.73
2024-04-26T12:09:53.829Z,1.50
2024-04-26T12:12:24.495Z,1.40
2024-04-26T12:14:55.613Z,1.40
2024-04-26T12:17:26.507Z,1.60
2024-04-26T12:20:00.443Z,1.70
2024-04-26T12:22:31.122Z,1.67
2024-04-26T12:25:05.567Z,1.30
2024-04-26T12:27:36.447Z,3.42
2024-04-26T12:30:11.337Z,1.45
2024-04-26T12:32:42.573Z,1.70
2024-04-26T12:35:16.442Z,1.95
2024-04-26T12:37:47.157Z,1.70
2024-04-26T12:40:18.985Z,1.60
2024-04-26T12:42:49.733Z,1.58
2024-04-26T12:45:22.588Z,1.70
2024-04-26T12:47:54.210Z,2.10
2024-04-26T12:50:28.048Z,1.58
2024-04-26T12:52:58.713Z,1.80
2024-04-26T12:55:29.855Z,1.70
2024-04-26T12:58:00.601Z,1.60
2024-04-26T13:00:31.848Z,2.08
2024-04-26T13:03:02.700Z,1.77
2024-04-26T13:05:36.639Z,1.65
2024-04-26T13:08:07.864Z,1.90
2024-04-26T13:10:40.109Z,1.90
2024-04-26T13:13:10.873Z,1.50
2024-04-26T13:15:42.017Z,1.75
2024-04-26T13:18:15.253Z,1.85
2024-04-26T13:20:50.624Z,1.80
2024-04-26T13:23:21.432Z,1.55
2024-04-26T13:25:52.690Z,2.05
2024-04-26T13:28:23.372Z,2.00
2024-04-26T13:30:54.560Z,1.88
2024-04-26T13:33:25.724Z,1.50
2024-04-26T13:36:00.405Z,1.48
2024-04-26T13:38:31.374Z,1.67
2024-04-26T13:41:02.603Z,1.98
2024-04-26T13:43:34.345Z,1.77
2024-04-26T13:46:05.593Z,2.05
2024-04-26T13:48:36.666Z,2.30
2024-04-26T13:51:10.896Z,2.25
2024-04-26T13:53:45.661Z,1.80
2024-04-26T13:56:16.871Z,2.00
2024-04-26T13:58:47.625Z,2.15
2024-04-26T14:01:22.787Z,1.85
2024-04-26T14:03:54.400Z,1.85
2024-04-26T14:06:28.267Z,1.80
2024-04-26T14:08:59.068Z,1.77
2024-04-26T14:11:30.341Z,2.30
2024-04-26T14:14:01.062Z,1.83
2024-04-26T14:16:32.247Z,1.63
2024-04-26T14:19:03.098Z,1.90
2024-04-26T14:21:37.706Z,2.22
2024-04-26T14:24:09.128Z,1.98
2024-04-26T14:26:40.308Z,2.60
2024-04-26T14:29:11.380Z,1.75
2024-04-26T14:31:42.618Z,1.88
2024-04-26T14:34:13.433Z,1.83
2024-04-26T14:36:50.781Z,2.00
2024-04-26T14:39:23.673Z,1.77
2024-04-26T14:41:54.739Z,1.70
2024-04-26T14:44:25.464Z,1.75
2024-04-26T14:46:56.788Z,2.53
2024-04-26T14:49:27.698Z,2.10
2024-04-26T14:52:01.789Z,1.77
2024-04-26T14:54:32.592Z,1.95
2024-04-26T14:57:04.125Z,1.60
2024-04-26T14:59:34.882Z,1.50
2024-04-26T15:02:06.086Z,1.80
2024-04-26T15:04:37.000Z,1.90
2024-04-26T15:07:16.291Z,1.58
2024-04-26T15:09:51.035Z,1.50
2024-04-26T15:12:22.678Z,2.33
2024-04-26T15:14:53.749Z,2.17
2024-04-26T15:17:24.825Z,2.20
2024-04-26T15:19:55.796Z,2.55
2024-04-26T15:22:29.598Z,1.90
2024-04-26T15:25:03.110Z,1.77
2024-04-26T15:27:37.223Z,1.42
2024-04-26T15:30:11.130Z,1.90
2024-04-26T15:32:42.588Z,1.52
2024-04-26T15:35:13.412Z,1.20
2024-04-26T15:37:47.902Z,1.52
2024-04-26T15:40:18.938Z,2.33
2024-04-26T15:42:50.091Z,1.98
2024-04-26T15:45:20.827Z,2.40
2024-04-26T15:47:52.089Z,1.83
2024-04-26T15:50:25.194Z,1.50
2024-04-26T15:53:01.259Z,1.50
2024-04-26T15:55:32.208Z,1.48
2024-04-26T15:58:03.489Z,1.92
2024-04-26T16:00:34.264Z,1.70
2024-04-26T16:03:07.035Z,1.30
2024-04-26T16:05:38.674Z,1.70
2024-04-26T16:08:12.622Z,1.52
2024-04-26T16:10:43.382Z,1.20
2024-04-26T16:13:14.505Z,1.60
2024-04-26T16:15:45.174Z,1.65
2024-04-26T16:18:16.949Z,1.65
2024-04-26T16:20:47.771Z,1.40
2024-04-26T16:23:21.571Z,1.40
2024-04-26T16:25:52.308Z,1.30
2024-04-26T16:28:23.512Z,1.60
2024-04-26T16:30:54.323Z,1.55
2024-04-26T16:33:25.502Z,1.58
2024-04-26T16:35:56.228Z,1.55
2024-04-26T16:38:32.843Z,1.88
2024-04-26T16:41:03.807Z,1.42
2024-04-26T16:43:34.983Z,1.50
2024-04-26T16:46:05.790Z,1.58
2024-04-26T16:48:37.625Z,1.90
2024-04-26T16:51:09.900Z,1.58
2024-04-26T16:53:43.649Z,1.70
2024-04-26T16:56:14.965Z,1.88
2024-04-26T16:58:46.188Z,1.65
2024-04-26T17:01:17.100Z,1.60
2024-04-26T17:03:48.519Z,1.65
2024-04-26T17:06:19.883Z,1.88
2024-04-26T17:08:53.871Z,2.20
2024-04-26T17:11:24.627Z,2.72
2024-04-26T17:13:56.804Z,2.05
2024-04-26T17:16:27.611Z,2.08
2024-04-26T17:18:59.970Z,2.60
2024-04-26T17:21:31.481Z,1.90
2024-04-26T17:24:06.319Z,2.03
2024-04-26T17:26:37.156Z,2.25
2024-04-26T17:29:08.368Z,2.20
2024-04-26T17:31:40.093Z,2.10
2024-04-26T17:34:12.819Z,4.40
2024-04-26T17:36:44.358Z,5.18
2024-04-26T17:39:21.924Z,4.80
2024-04-26T17:41:52.869Z,4.80
2024-04-26T17:44:25.711Z,3.80
2024-04-26T17:46:56.803Z,4.00
2024-04-26T17:49:28.073Z,4.15
2024-04-26T17:52:03.102Z,5.05
2024-04-26T17:54:38.963Z,5.72
2024-04-26T17:57:10.178Z,5.40
2024-04-26T17:59:43.833Z,5.30
2024-04-26T18:02:14.905Z,5.55
2024-04-26T18:04:46.180Z,6.00
2024-04-26T18:07:17.034Z,5.40
2024-04-26T18:09:50.932Z,5.97
2024-04-26T18:12:21.743Z,5.55
2024-04-26T18:14:52.982Z,6.80
2024-04-26T18:17:23.755Z,6.32
2024-04-26T18:19:55.086Z,5.07
2024-04-26T18:22:25.940Z,5.22
2024-04-26T18:24:59.862Z,5.03
2024-04-26T18:27:31.744Z,4.90
2024-04-26T18:30:02.939Z,4.70
2024-04-26T18:32:36.882Z,5.20
2024-04-26T18:35:09.986Z,4.85
2024-04-26T18:37:40.900Z,6.00
2024-04-26T18:40:15.496Z,5.53
2024-04-26T18:42:46.277Z,5.63
2024-04-26T18:45:17.743Z,5.65
2024-04-26T18:47:48.681Z,5.55
2024-04-26T18:50:20.147Z,5.70
2024-04-26T18:52:50.903Z,6.35
2024-04-26T18:55:24.725Z,6.18
2024-04-26T18:57:55.503Z,6.32
2024-04-26T19:00:26.931Z,7.43
2024-04-26T19:02:57.752Z,7.28
2024-04-26T19:05:29.346Z,7.18
2024-04-26T19:08:00.322Z,6.78
2024-04-26T19:10:35.672Z,7.40
2024-04-26T19:13:09.001Z,7.30
2024-04-26T19:15:40.045Z,7.40
2024-04-26T19:18:10.857Z,7.38
2024-04-26T19:20:42.376Z,6.78
2024-04-26T19:23:13.329Z,7.45
2024-04-26T19:25:47.254Z,9.90
2024-04-26T19:28:18.049Z,9.32
2024-04-26T19:30:53.494Z,9.63
2024-04-26T19:33:24.402Z,9.63
2024-04-26T19:35:55.913Z,10.02
2024-04-26T19:38:27.694Z,9.85
2024-04-26T19:41:01.731Z,10.10
2024-04-26T19:43:32.541Z,9.30
2024-04-26T19:46:03.864Z,9.88
2024-04-26T19:48:34.543Z,9.45
2024-04-26T19:51:09.493Z,10.43
2024-04-26T19:53:56.063Z,10.18
2024-04-26T19:56:29.917Z,10.85
2024-04-26T19:59:00.906Z,11.93
2024-04-26T20:01:32.406Z,11.43
2024-04-26T20:04:03.327Z,12.52
2024-04-26T20:06:34.569Z,11.98
2024-04-26T20:09:05.356Z,13.35
2024-04-26T20:11:39.410Z,13.23
2024-04-26T20:14:10.862Z,13.20
2024-04-26T20:16:42.013Z,14.52
2024-04-26T20:19:13.748Z,14.95
2024-04-26T20:21:45.615Z,15.85
2024-04-26T20:24:16.507Z,18.27
2024-04-26T20:26:50.398Z,16.60
2024-04-26T20:29:22.539Z,16.20
2024-04-26T20:31:53.768Z,16.20
2024-04-26T20:34:24.625Z,16.42
2024-04-26T20:36:55.963Z,15.77
2024-04-26T20:39:26.721Z,15.73
2024-04-26T20:42:00.393Z,15.30
2024-04-26T20:44:31.108Z,14.45
2024-04-26T20:47:02.227Z,14.23
2024-04-26T20:49:32.985Z,13.82
2024-04-26T20:52:04.073Z,12.55
2024-04-26T20:54:35.093Z,13.40
2024-04-26T20:57:08.897Z,12.93
2024-04-26T20:59:39.720Z,12.65
2024-04-26T21:02:10.945Z,12.07
2024-04-26T21:04:41.750Z,12.52
2024-04-26T21:07:12.859Z,11.57
2024-04-26T21:09:43.711Z,11.77
2024-04-26T21:12:17.459Z,11.95
2024-04-26T21:14:48.239Z,12.15
2024-04-26T21:17:19.462Z,11.95
2024-04-26T21:19:51.806Z,10.88
2024-04-26T21:22:23.408Z,11.13
2024-04-26T21:24:54.190Z,10.70
2024-04-26T21:27:27.896Z,10.27
2024-04-26T21:29:58.584Z,9.98
2024-04-26T21:32:31.833Z,9.88
2024-04-26T21:35:02.560Z,7.85
2024-04-26T21:37:34.954Z,7.28
2024-04-26T21:40:05.775Z,7.22
2024-04-26T21:42:39.595Z,6.80
2024-04-26T21:45:10.883Z,7.65
2024-04-26T21:47:42.274Z,6.28
2024-04-26T21:50:13.199Z,7.72
2024-04-26T21:52:44.483Z,7.60
2024-04-26T21:55:15.226Z,6.82
2024-04-26T21:57:46.352Z,6.82
2024-04-26T22:00:17.301Z,6.53
2024-04-26T22:02:50.418Z,6.65
2024-04-26T22:05:25.324Z,6.38
2024-04-26T22:07:56.747Z,6.85
2024-04-26T22:10:30.165Z,7.05
2024-04-26T22:13:03.978Z,6.80
2024-04-26T22:15:34.739Z,7.10
2024-04-26T22:18:05.883Z,7.43
2024-04-26T22:20:36.982Z,8.45
2024-04-26T22:23:05.603Z,7.57
2024-04-26T22:25:36.347Z,7.70
2024-04-26T22:28:10.308Z,8.15
2024-04-26T22:30:41.145Z,7.80
2024-04-26T22:33:12.366Z,7.65
2024-04-26T22:35:43.192Z,7.70
2024-04-26T22:38:14.343Z,7.72
2024-04-26T22:40:45.268Z,7.93
2024-04-26T22:43:19.091Z,8.82
2024-04-26T22:45:49.752Z,7.55
2024-04-26T22:48:20.963Z,8.35
2024-04-26T22:50:51.781Z,7.93
2024-04-26T22:53:22.866Z,7.65
2024-04-26T22:55:53.764Z,8.60
2024-04-26T22:58:28.009Z,7.88
2024-04-26T23:00:58.797Z,8.05
2024-04-26T23:03:29.957Z,7.80
2024-04-26T23:06:00.808Z,8.20
2024-04-26T23:08:31.986Z,7.90
2024-04-26T23:11:02.797Z,8.45
2024-04-26T23:13:37.328Z,9.00
2024-04-26T23:16:08.596Z,7.90
2024-04-26T23:18:39.846Z,8.23
2024-04-26T23:21:10.496Z,7.70
2024-04-26T23:23:49.438Z,8.27
2024-04-26T23:26:22.578Z,8.88
2024-04-26T23:28:59.301Z,8.65
2024-04-26T23:31:30.357Z,8.27
2024-04-26T23:34:03.050Z,8.52
2024-04-26T23:36:37.630Z,8.80
2024-04-26T23:39:08.692Z,9.10
2024-04-26T23:41:39.335Z,8.95
2024-04-26T23:44:13.167Z,8.20
2024-04-26T23:46:43.935Z,9.20
2024-04-26T23:49:15.070Z,8.50
2024-04-26T23:51:45.790Z,9.18
2024-04-26T23:54:16.990Z,7.78
2024-04-26T23:56:48.563Z,8.55
2024-04-26T23:59:22.424Z,8.38
